createdAt,value
2018-09-20T00:00:25.860Z,19.00
2018-09-20T00:02:54.987Z,19.00
2018-09-20T00:05:23.861Z,18.90
2018-09-20T00:07:52.609Z,19.00
2018-09-20T00:10:25.359Z,19.00
2018-09-20T00:12:54.095Z,19.00
2018-09-20T00:15:22.832Z,19.00
2018-09-20T00:17:51.657Z,19.00
2018-09-20T00:20:20.526Z,19.00
2018-09-20T00:22:49.389Z,18.90
2018-09-20T00:25:18.377Z,18.90
2018-09-20T00:27:47.127Z,18.80
2018-09-20T00:32:51.193Z,18.80
2018-09-20T00:35:19.917Z,18.70
2018-09-20T00:37:48.829Z,18.70
2018-09-20T00:40:17.534Z,18.70
2018-09-20T00:42:46.321Z,18.60
2018-09-20T00:45:15.205Z,18.60
2018-09-20T00:47:44.086Z,18.60
2018-09-20T00:50:12.948Z,18.60
2018-09-20T00:52:41.779Z,18.60
2018-09-20T00:55:10.489Z,18.50
2018-09-20T00:57:39.259Z,18.50
2018-09-20T01:00:08.014Z,18.50
2018-09-20T01:02:36.957Z,18.50
2018-09-20T01:05:05.949Z,18.50
2018-09-20T01:07:34.685Z,18.50
2018-09-20T01:10:03.505Z,18.50
2018-09-20T01:12:32.278Z,18.40
2018-09-20T01:15:01.106Z,18.30
2018-09-20T01:17:29.831Z,18.30
2018-09-20T01:19:58.589Z,18.30
2018-09-20T01:22:27.311Z,18.20
2018-09-20T01:24:56.182Z,18.20
2018-09-20T01:27:25.116Z,18.20
2018-09-20T01:29:53.812Z,18.20
2018-09-20T01:32:22.542Z,18.10
2018-09-20T01:34:51.426Z,18.10
2018-09-20T01:37:20.284Z,18.10
2018-09-20T01:39:49.031Z,18.10
2018-09-20T01:42:17.820Z,18.10
2018-09-20T01:44:51.670Z,18.10
2018-09-20T01:47:20.418Z,18.10
2018-09-20T01:49:49.302Z,18.00
2018-09-20T01:52:18.159Z,18.00
2018-09-20T01:54:46.985Z,18.00
2018-09-20T01:57:15.768Z,18.00
2018-09-20T01:59:44.812Z,18.00
2018-09-20T02:05:05.893Z,18.00
2018-09-20T02:07:34.817Z,18.00
2018-09-20T02:10:03.574Z,17.90
2018-09-20T02:12:32.318Z,17.90
2018-09-20T02:15:01.090Z,17.90
2018-09-20T02:17:35.511Z,17.80
2018-09-20T02:20:04.383Z,17.80
2018-09-20T02:22:33.237Z,17.70
2018-09-20T02:25:02.041Z,17.70
2018-09-20T02:27:30.826Z,17.70
2018-09-20T02:29:59.642Z,17.60
2018-09-20T02:32:28.551Z,17.60
2018-09-20T02:34:57.260Z,17.60
2018-09-20T02:37:26.033Z,17.60
2018-09-20T02:39:54.854Z,17.60
2018-09-20T02:42:23.748Z,17.60
2018-09-20T02:44:52.549Z,17.60
2018-09-20T02:47:21.425Z,17.60
2018-09-20T02:49:50.306Z,17.50
2018-09-20T02:52:19.034Z,17.50
2018-09-20T02:54:47.836Z,17.50
2018-09-20T02:57:16.633Z,17.50
2018-09-20T02:59:45.449Z,17.50
2018-09-20T03:02:14.334Z,17.50
2018-09-20T03:04:43.037Z,17.40
2018-09-20T03:07:11.828Z,17.40
2018-09-20T03:09:41.155Z,17.40
2018-09-20T03:12:09.980Z,17.30
2018-09-20T03:14:38.782Z,17.30
2018-09-20T03:17:07.530Z,17.30
2018-09-20T03:19:36.410Z,17.30
2018-09-20T03:22:05.241Z,17.20
2018-09-20T03:24:34.072Z,17.20
2018-09-20T03:27:02.936Z,17.20
2018-09-20T03:29:31.818Z,17.10
2018-09-20T03:32:00.701Z,17.10
2018-09-20T03:34:29.771Z,17.10
2018-09-20T03:36:58.562Z,17.10
2018-09-20T03:39:27.334Z,17.10
2018-09-20T03:41:56.205Z,17.10
2018-09-20T03:44:27.131Z,17.00
2018-09-20T03:46:55.977Z,17.10
2018-09-20T03:49:24.758Z,17.00
2018-09-20T03:51:53.612Z,17.00
2018-09-20T03:54:22.417Z,17.00
2018-09-20T03:56:51.230Z,17.00
2018-09-20T03:59:19.937Z,17.00
2018-09-20T04:01:48.802Z,17.00
2018-09-20T04:04:17.673Z,17.00
2018-09-20T04:06:46.574Z,17.00
2018-09-20T04:09:15.336Z,17.00
2018-09-20T04:11:44.112Z,17.00
2018-09-20T04:14:12.836Z,17.00
2018-09-20T04:16:41.572Z,17.00
2018-09-20T04:19:10.404Z,17.00
2018-09-20T04:21:39.120Z,17.00
2018-09-20T04:24:07.953Z,16.90
2018-09-20T04:26:36.689Z,16.90
2018-09-20T04:29:05.490Z,16.90
2018-09-20T04:31:34.227Z,16.90
2018-09-20T04:34:03.110Z,16.90
2018-09-20T04:36:32.086Z,16.80
2018-09-20T04:39:00.849Z,16.80
2018-09-20T04:41:29.814Z,16.80
2018-09-20T04:43:58.618Z,16.80
2018-09-20T04:46:27.373Z,16.80
2018-09-20T04:48:56.141Z,16.70
2018-09-20T04:51:24.861Z,16.70
2018-09-20T04:53:53.616Z,16.70
2018-09-20T04:56:22.413Z,16.70
2018-09-20T04:58:51.129Z,16.70
2018-09-20T05:01:20.194Z,16.70
2018-09-20T05:03:49.115Z,16.70
2018-09-20T05:06:17.832Z,16.70
2018-09-20T05:08:46.768Z,16.70
2018-09-20T05:11:15.485Z,16.70
2018-09-20T05:13:44.405Z,16.60
2018-09-20T05:16:13.127Z,16.60
2018-09-20T05:18:41.863Z,16.60
2018-09-20T05:21:10.706Z,16.60
2018-09-20T05:23:39.525Z,16.70
2018-09-20T05:26:08.383Z,16.60
2018-09-20T05:28:37.153Z,16.60
2018-09-20T05:31:05.945Z,16.60
2018-09-20T05:33:34.857Z,16.60
2018-09-20T05:36:03.622Z,16.70
2018-09-20T05:38:32.352Z,16.70
2018-09-20T05:41:01.189Z,16.70
2018-09-20T05:43:29.962Z,16.70
2018-09-20T05:46:00.785Z,16.70
2018-09-20T05:48:29.761Z,16.70
2018-09-20T05:50:58.654Z,16.70
2018-09-20T05:53:27.501Z,16.70
2018-09-20T05:55:56.226Z,16.80
2018-09-20T05:58:25.133Z,16.70
2018-09-20T06:00:54.031Z,16.70
2018-09-20T06:03:23.146Z,16.70
2018-09-20T06:05:51.895Z,16.80
2018-09-20T06:08:20.585Z,16.80
2018-09-20T06:10:49.790Z,16.80
2018-09-20T06:13:18.795Z,16.80
2018-09-20T06:15:57.389Z,16.90
2018-09-20T06:18:30.135Z,16.90
2018-09-20T06:20:59.119Z,16.90
2018-09-20T06:23:27.853Z,17.00
2018-09-20T06:25:56.797Z,17.00
2018-09-20T06:28:25.590Z,17.00
2018-09-20T06:30:54.449Z,17.00
2018-09-20T06:33:23.225Z,17.10
2018-09-20T06:35:52.139Z,17.10
2018-09-20T06:38:20.951Z,17.10
2018-09-20T06:40:49.922Z,17.20
2018-09-20T06:43:25.474Z,17.20
2018-09-20T06:45:54.376Z,17.20
2018-09-20T06:48:31.887Z,17.20
2018-09-20T06:51:00.605Z,17.30
2018-09-20T06:53:29.356Z,17.30
2018-09-20T06:55:58.211Z,17.40
2018-09-20T06:58:27.134Z,17.40
2018-09-20T07:00:55.830Z,17.50
2018-09-20T07:03:24.786Z,17.50
2018-09-20T07:05:54.402Z,17.60
2018-09-20T07:08:29.497Z,17.70
2018-09-20T07:10:58.273Z,17.70
2018-09-20T07:13:26.990Z,17.80
2018-09-20T07:15:55.792Z,17.80
2018-09-20T07:18:24.629Z,17.90
2018-09-20T07:20:53.474Z,18.00
2018-09-20T07:23:22.437Z,18.10
2018-09-20T07:25:51.218Z,18.20
2018-09-20T07:28:20.022Z,18.20
2018-09-20T07:30:57.819Z,18.30
2018-09-20T07:33:26.528Z,18.40
2018-09-20T07:35:55.363Z,18.40
2018-09-20T07:38:24.372Z,18.50
2018-09-20T07:40:53.209Z,18.60
2018-09-20T07:43:22.059Z,18.70
2018-09-20T07:45:51.029Z,18.80
2018-09-20T07:48:20.447Z,18.90
2018-09-20T07:50:49.277Z,19.00
2018-09-20T07:53:18.337Z,19.10
2018-09-20T07:56:17.708Z,19.20
2018-09-20T07:58:46.622Z,19.30
2018-09-20T08:01:15.547Z,19.40
2018-09-20T08:03:44.457Z,19.50
2018-09-20T08:06:13.441Z,19.50
2018-09-20T08:08:42.453Z,19.60
2018-09-20T08:11:11.360Z,19.60
2018-09-20T08:13:40.401Z,19.70
2018-09-20T08:16:09.301Z,19.80
2018-09-20T08:18:38.276Z,19.80
2018-09-20T08:21:07.278Z,19.90
2018-09-20T08:23:36.186Z,19.90
2018-09-20T08:26:05.041Z,20.00
2018-09-20T08:28:33.883Z,20.10
2018-09-20T08:31:02.952Z,20.10
2018-09-20T08:33:35.969Z,20.20
2018-09-20T08:36:04.840Z,20.20
2018-09-20T08:38:33.719Z,20.30
2018-09-20T08:41:02.573Z,20.30
2018-09-20T08:43:31.585Z,20.40
2018-09-20T08:46:04.535Z,20.40
2018-09-20T08:48:33.569Z,20.50
2018-09-20T08:51:02.472Z,20.60
2018-09-20T08:53:31.375Z,20.70
2018-09-20T08:56:00.363Z,20.70
2018-09-20T08:58:32.899Z,20.70
2018-09-20T09:01:03.602Z,20.80
2018-09-20T09:03:32.587Z,20.90
2018-09-20T09:06:01.894Z,21.00
2018-09-20T09:08:30.982Z,21.00
2018-09-20T09:10:59.859Z,21.20
2018-09-20T09:13:28.730Z,21.40
2018-09-20T09:15:57.634Z,21.40
2018-09-20T09:18:26.541Z,21.50
2018-09-20T09:20:55.322Z,21.60
2018-09-20T09:23:24.189Z,21.70
2018-09-20T09:25:53.263Z,21.70
2018-09-20T09:28:24.342Z,21.80
2018-09-20T09:30:53.302Z,21.90
2018-09-20T09:33:22.296Z,22.00
2018-09-20T09:35:51.161Z,22.10
2018-09-20T09:38:20.001Z,22.10
2018-09-20T09:40:49.083Z,22.20
2018-09-20T09:43:18.063Z,22.30
2018-09-20T09:45:46.965Z,22.40
2018-09-20T09:48:16.141Z,22.50
2018-09-20T09:50:45.134Z,22.60
2018-09-20T09:53:14.049Z,22.60
2018-09-20T09:55:42.903Z,22.60
2018-09-20T09:58:11.722Z,22.60
2018-09-20T10:00:41.860Z,22.70
2018-09-20T10:03:10.846Z,22.80
2018-09-20T10:05:39.689Z,22.90
2018-09-20T10:08:08.654Z,23.00
2018-09-20T10:10:37.497Z,23.10
2018-09-20T10:13:06.474Z,23.10
2018-09-20T10:15:35.374Z,23.20
2018-09-20T10:18:04.301Z,23.20
2018-09-20T10:20:33.166Z,23.30
2018-09-20T10:23:08.611Z,23.30
2018-09-20T10:25:37.436Z,23.30
2018-09-20T10:28:06.539Z,23.40
2018-09-20T10:30:40.525Z,23.40
2018-09-20T10:33:09.458Z,23.50
2018-09-20T10:35:38.370Z,23.60
2018-09-20T10:38:12.448Z,23.60
2018-09-20T10:40:41.266Z,23.70
2018-09-20T10:43:10.158Z,23.80
2018-09-20T10:45:38.990Z,23.90
2018-09-20T10:48:07.864Z,24.00
2018-09-20T10:50:36.870Z,24.00
2018-09-20T10:53:05.845Z,24.10
2018-09-20T10:55:34.760Z,24.10
2018-09-20T10:58:03.735Z,24.10
2018-09-20T11:00:32.817Z,24.20
2018-09-20T11:03:01.820Z,24.40
2018-09-20T11:05:30.729Z,24.50
2018-09-20T11:07:59.691Z,24.50
2018-09-20T11:10:28.576Z,24.50
2018-09-20T11:12:57.717Z,24.50
2018-09-20T11:15:26.501Z,24.50
2018-09-20T11:17:55.421Z,24.50
2018-09-20T11:20:24.370Z,24.50
2018-09-20T11:22:53.318Z,24.60
2018-09-20T11:25:22.570Z,24.70
2018-09-20T11:27:51.524Z,24.70
2018-09-20T11:30:20.503Z,24.70
2018-09-20T11:32:49.437Z,24.80
2018-09-20T11:35:18.390Z,24.80
2018-09-20T11:37:47.465Z,24.80
2018-09-20T11:40:16.394Z,25.00
2018-09-20T11:42:45.305Z,25.00
2018-09-20T11:45:14.334Z,25.10
2018-09-20T11:47:43.363Z,25.20
2018-09-20T11:50:12.339Z,25.20
2018-09-20T11:52:41.410Z,25.30
2018-09-20T11:55:10.619Z,25.40
2018-09-20T11:57:39.500Z,25.40
2018-09-20T12:00:09.451Z,25.40
2018-09-20T12:02:38.610Z,25.50
2018-09-20T12:05:18.281Z,25.50
2018-09-20T12:07:47.132Z,25.60
2018-09-20T12:10:16.738Z,25.60
2018-09-20T12:12:45.711Z,25.70
2018-09-20T12:15:14.605Z,25.80
2018-09-20T12:17:43.522Z,25.80
2018-09-20T12:20:12.434Z,26.00
2018-09-20T12:22:41.399Z,26.00
2018-09-20T12:25:10.450Z,26.10
2018-09-20T12:27:45.581Z,26.20
2018-09-20T12:30:14.534Z,26.20
2018-09-20T12:32:43.478Z,26.30
2018-09-20T12:35:12.314Z,26.30
2018-09-20T12:37:41.245Z,26.40
2018-09-20T12:40:10.257Z,26.40
2018-09-20T12:42:39.250Z,26.40
2018-09-20T12:45:08.186Z,26.40
2018-09-20T12:47:37.138Z,26.40
2018-09-20T12:50:06.443Z,26.50
2018-09-20T12:52:35.320Z,26.60
2018-09-20T12:55:04.429Z,26.70
2018-09-20T12:57:33.277Z,26.70
2018-09-20T13:00:02.178Z,26.80
2018-09-20T13:02:34.134Z,26.80
2018-09-20T13:05:03.061Z,26.90
2018-09-20T13:07:32.021Z,26.90
2018-09-20T13:10:03.078Z,27.00
2018-09-20T13:12:31.843Z,27.10
2018-09-20T13:15:00.663Z,27.10
2018-09-20T13:17:29.565Z,27.10
2018-09-20T13:19:58.529Z,27.10
2018-09-20T13:22:27.645Z,27.10
2018-09-20T13:24:56.611Z,27.20
2018-09-20T13:27:31.653Z,27.20
2018-09-20T13:30:00.557Z,27.20
2018-09-20T13:32:29.575Z,27.20
2018-09-20T13:34:58.356Z,27.20
2018-09-20T13:37:27.221Z,27.30
2018-09-20T13:39:58.312Z,27.30
2018-09-20T13:42:27.193Z,27.30
2018-09-20T13:44:56.173Z,27.30
2018-09-20T13:47:25.132Z,27.40
2018-09-20T13:49:54.210Z,27.40
2018-09-20T13:52:25.213Z,27.40
2018-09-20T13:54:54.222Z,27.40
2018-09-20T13:57:23.073Z,27.40
2018-09-20T13:59:52.164Z,27.40
2018-09-20T14:02:21.201Z,27.40
2018-09-20T14:04:50.113Z,27.30
2018-09-20T14:07:19.045Z,27.30
2018-09-20T14:09:48.014Z,27.30
2018-09-20T14:12:17.060Z,27.30
2018-09-20T14:14:49.797Z,27.20
2018-09-20T14:17:18.734Z,27.20
2018-09-20T14:19:47.755Z,27.10
2018-09-20T14:22:16.858Z,27.10
2018-09-20T14:24:45.906Z,27.10
2018-09-20T14:27:14.845Z,27.10
2018-09-20T14:29:43.898Z,27.10
2018-09-20T14:32:13.034Z,27.10
2018-09-20T14:34:42.042Z,27.10
2018-09-20T14:37:11.102Z,27.10
2018-09-20T14:39:39.956Z,27.20
2018-09-20T14:42:09.373Z,27.10
2018-09-20T14:44:38.182Z,27.10
2018-09-20T14:47:07.106Z,27.10
2018-09-20T14:49:35.993Z,27.00
2018-09-20T14:52:04.901Z,27.00
2018-09-20T14:54:33.685Z,27.10
2018-09-20T14:57:02.637Z,27.10
2018-09-20T14:59:31.698Z,27.10
2018-09-20T15:02:00.627Z,27.00
2018-09-20T15:04:29.522Z,26.90
2018-09-20T15:06:58.432Z,26.90
2018-09-20T15:09:27.370Z,26.90
2018-09-20T15:11:56.346Z,26.80
2018-09-20T15:14:25.318Z,26.80
2018-09-20T15:16:54.210Z,26.80
2018-09-20T15:19:23.094Z,26.80
2018-09-20T15:21:51.971Z,26.80
2018-09-20T15:24:20.875Z,26.80
2018-09-20T15:26:49.990Z,26.80
2018-09-20T15:29:18.958Z,26.80
2018-09-20T15:31:47.889Z,26.80
2018-09-20T15:34:16.847Z,26.80
2018-09-20T15:36:45.892Z,26.80
2018-09-20T15:39:14.665Z,26.80
2018-09-20T15:41:43.556Z,26.90
2018-09-20T15:44:12.607Z,26.80
2018-09-20T15:46:41.609Z,26.80
2018-09-20T15:49:10.454Z,26.80
2018-09-20T15:51:39.329Z,26.80
2018-09-20T15:54:08.170Z,26.80
2018-09-20T15:56:36.973Z,26.70
2018-09-20T15:59:05.874Z,26.70
2018-09-20T16:01:34.762Z,26.70
2018-09-20T16:04:03.831Z,26.60
2018-09-20T16:06:33.458Z,26.60
2018-09-20T16:09:02.390Z,26.60
2018-09-20T16:11:31.313Z,26.60
2018-09-20T16:14:00.205Z,26.60
2018-09-20T16:16:29.251Z,26.60
2018-09-20T16:18:58.233Z,26.60
2018-09-20T16:21:33.518Z,26.60
2018-09-20T16:24:02.441Z,26.60
2018-09-20T16:26:31.230Z,26.60
2018-09-20T16:29:06.249Z,26.60
2018-09-20T16:33:52.490Z,26.60
2018-09-20T16:36:28.769Z,26.70
2018-09-20T16:39:05.141Z,26.60
2018-09-20T16:41:39.245Z,26.60
2018-09-20T16:44:08.245Z,26.50
2018-09-20T16:46:37.101Z,26.50
2018-09-20T16:49:05.979Z,26.40
2018-09-20T16:51:34.921Z,26.40
2018-09-20T16:54:03.774Z,26.40
2018-09-20T16:56:32.675Z,26.40
2018-09-20T16:59:01.541Z,26.20
2018-09-20T17:01:40.201Z,26.10
2018-09-20T17:04:09.121Z,26.00
2018-09-20T17:06:38.041Z,25.90
2018-09-20T17:09:07.657Z,25.70
2018-09-20T17:11:36.685Z,25.60
2018-09-20T17:14:05.677Z,25.40
2018-09-20T17:16:34.632Z,25.30
2018-09-20T17:19:09.585Z,25.20
2018-09-20T17:21:38.889Z,25.00
2018-09-20T17:24:08.061Z,24.90
2018-09-20T17:26:36.941Z,24.70
2018-09-20T17:29:05.998Z,24.60
2018-09-20T17:31:46.775Z,24.50
2018-09-20T17:34:15.660Z,24.30
2018-09-20T17:36:44.687Z,24.20
2018-09-20T17:39:14.412Z,24.10
2018-09-20T17:41:44.870Z,24.00
2018-09-20T17:44:14.800Z,23.90
2018-09-20T17:46:43.677Z,23.80
2018-09-20T17:49:12.546Z,23.80
2018-09-20T17:51:41.905Z,23.70
2018-09-20T17:54:11.033Z,23.60
2018-09-20T17:56:40.258Z,23.60
2018-09-20T17:59:13.015Z,23.50
2018-09-20T18:01:48.497Z,23.50
2018-09-20T18:04:17.428Z,23.40
2018-09-20T18:06:46.435Z,23.30
2018-09-20T18:09:16.518Z,23.30
2018-09-20T18:11:45.567Z,23.20
2018-09-20T18:14:15.822Z,23.20
2018-09-20T18:16:44.797Z,23.20
2018-09-20T18:19:13.626Z,23.10
2018-09-20T18:21:42.457Z,23.10
2018-09-20T18:24:11.394Z,23.00
2018-09-20T18:26:40.443Z,23.00
2018-09-20T18:29:13.501Z,23.00
2018-09-20T18:31:42.526Z,22.90
2018-09-20T18:34:11.550Z,22.90
2018-09-20T18:36:40.709Z,22.80
2018-09-20T18:39:12.294Z,22.80
2018-09-20T18:41:42.734Z,22.70
2018-09-20T18:44:11.777Z,22.70
2018-09-20T18:46:40.734Z,22.60
2018-09-20T18:49:09.682Z,22.50
2018-09-20T18:51:38.786Z,22.50
2018-09-20T18:54:09.822Z,22.40
2018-09-20T18:56:38.778Z,22.40
2018-09-20T18:59:07.918Z,22.30
2018-09-20T19:01:36.996Z,22.30
2018-09-20T19:04:06.085Z,22.20
2018-09-20T19:06:35.123Z,22.10
2018-09-20T19:09:06.132Z,22.10
2018-09-20T19:11:35.194Z,22.10
2018-09-20T19:14:04.089Z,22.00
2018-09-20T19:16:33.240Z,22.00
2018-09-20T19:19:02.210Z,21.90
2018-09-20T19:21:31.271Z,21.80
2018-09-20T19:24:00.366Z,21.80
2018-09-20T19:26:29.394Z,21.70
2018-09-20T19:28:58.630Z,21.70
2018-09-20T19:34:02.742Z,21.60
2018-09-20T19:36:31.527Z,21.60
2018-09-20T19:39:00.540Z,21.50
2018-09-20T19:41:30.248Z,21.40
2018-09-20T19:43:59.210Z,21.40
2018-09-20T19:46:28.301Z,21.30
2018-09-20T19:48:57.163Z,21.20
2018-09-20T19:51:26.183Z,21.20
2018-09-20T19:53:54.998Z,21.10
2018-09-20T19:56:23.934Z,21.10
2018-09-20T19:58:53.334Z,21.10
2018-09-20T20:01:22.377Z,21.00
2018-09-20T20:03:51.406Z,21.00
2018-09-20T20:06:20.329Z,21.00
2018-09-20T20:08:49.504Z,20.90
2018-09-20T20:11:18.457Z,21.00
2018-09-20T20:13:47.461Z,20.90
2018-09-20T20:16:16.422Z,20.90
2018-09-20T20:18:45.438Z,20.90
2018-09-20T20:21:14.369Z,20.90
2018-09-20T20:23:43.679Z,20.80
2018-09-20T20:26:12.786Z,20.80
2018-09-20T20:28:41.902Z,20.80
2018-09-20T20:31:10.610Z,20.70
2018-09-20T20:33:39.659Z,20.70
2018-09-20T20:36:20.407Z,20.70
2018-09-20T20:38:49.331Z,20.60
2018-09-20T20:41:18.207Z,20.60
2018-09-20T20:43:47.157Z,20.60
2018-09-20T20:46:16.151Z,20.60
2018-09-20T20:48:45.035Z,20.60
2018-09-20T20:51:13.966Z,20.50
2018-09-20T20:53:42.906Z,20.50
2018-09-20T20:56:13.947Z,20.50
2018-09-20T20:58:42.971Z,20.50
2018-09-20T21:01:15.968Z,20.50
2018-09-20T21:03:44.999Z,20.40
2018-09-20T21:06:13.965Z,20.40
2018-09-20T21:08:42.930Z,20.40
2018-09-20T21:11:11.740Z,20.40
2018-09-20T21:13:40.633Z,20.40
2018-09-20T21:16:09.543Z,20.40
2018-09-20T21:18:38.673Z,20.40
2018-09-20T21:21:07.606Z,20.30
2018-09-20T21:23:36.424Z,20.30
2018-09-20T21:26:05.245Z,20.20
2018-09-20T21:28:34.283Z,20.30
2018-09-20T21:31:03.189Z,20.20
2018-09-20T21:33:32.220Z,20.20
2018-09-20T21:36:01.014Z,20.20
2018-09-20T21:38:29.856Z,20.10
2018-09-20T21:40:58.953Z,20.10
2018-09-20T21:43:27.880Z,20.10
2018-09-20T21:45:56.749Z,20.00
2018-09-20T21:48:25.709Z,20.00
2018-09-20T21:50:54.556Z,20.00
2018-09-20T21:53:23.507Z,19.90
2018-09-20T21:55:54.177Z,19.90
2018-09-20T21:58:23.161Z,19.90
2018-09-20T22:00:56.335Z,19.90
2018-09-20T22:03:25.160Z,19.80
2018-09-20T22:05:54.005Z,19.80
2018-09-20T22:08:22.858Z,19.70
2018-09-20T22:10:51.929Z,19.70
2018-09-20T22:13:20.723Z,19.80
2018-09-20T22:15:49.951Z,19.70
2018-09-20T22:18:18.840Z,19.70
2018-09-20T22:20:47.809Z,19.70
2018-09-20T22:23:16.689Z,19.70
2018-09-20T22:25:45.573Z,19.70
2018-09-20T22:28:18.427Z,19.70
2018-09-20T22:30:47.365Z,19.70
2018-09-20T22:33:16.378Z,19.60
2018-09-20T22:35:45.319Z,19.60
2018-09-20T22:38:14.146Z,19.70
2018-09-20T22:40:43.150Z,19.60
2018-09-20T22:43:12.106Z,19.60
2018-09-20T22:45:41.040Z,19.60
2018-09-20T22:48:09.926Z,19.60
2018-09-20T22:50:38.789Z,19.50
2018-09-20T22:53:07.765Z,19.50
2018-09-20T22:55:36.742Z,19.50
2018-09-20T22:58:05.768Z,19.50
2018-09-20T23:00:34.602Z,19.50
2018-09-20T23:03:03.502Z,19.50
2018-09-20T23:05:32.373Z,19.50
2018-09-20T23:08:01.174Z,19.40
2018-09-20T23:10:30.079Z,19.40
2018-09-20T23:12:59.030Z,19.40
2018-09-20T23:15:28.236Z,19.40
2018-09-20T23:17:59.150Z,19.30
2018-09-20T23:20:28.029Z,19.30
2018-09-20T23:22:56.853Z,19.30
2018-09-20T23:25:25.750Z,19.20
2018-09-20T23:27:54.614Z,19.20
2018-09-20T23:30:23.524Z,19.10
2018-09-20T23:32:52.599Z,19.10
2018-09-20T23:35:21.469Z,19.10
2018-09-20T23:37:50.508Z,19.10
2018-09-20T23:40:19.604Z,19.00
2018-09-20T23:42:48.501Z,19.00
2018-09-20T23:45:17.379Z,19.00
2018-09-20T23:47:46.225Z,19.00
2018-09-20T23:50:15.270Z,19.00
2018-09-20T23:52:44.196Z,19.00
2018-09-20T23:55:13.150Z,18.90
2018-09-20T23:57:42.020Z,18.90
